Time,TemperatureF,DewpointF,PressureIn,WindDirection,WindDirectionDegrees,WindSpeedMPH,WindSpeedGustMPH,Humidity,HourlyPrecipIn,Conditions,Clouds,dailyrainin,SoftwareType,DateUTC
2013-01-22 00:01:00,13.6,-2.9,30.43,NNE,15,0.0,0.0,47,0.00,CLR,SKC,0.00,WeatherDisplay:10.37,2013-01-22 06:01:00,
2013-01-22 00:06:00,13.6,-2.5,30.43,NNE,15,1.1,1.1,48,0.00,CLR,SKC,0.00,WeatherDisplay:10.37,2013-01-22 06:06:00,
2013-01-22 00:11:00,13.6,-2.5,30.43,NNE,15,1.1,1.1,48,0.00,CLR,SKC,0.00,WeatherDisplay:10.37,2013-01-22 06:11:00,
2013-01-22 00:16:00,13.6,-2.5,30.42,NE,42,4.6,4.6,48,0.00,CLR,SKC,0.00,WeatherDisplay:10.37,2013-01-22 06:16:00,
2013-01-22 00:21:00,13.6,-2.5,30.43,NE,42,1.1,1.1,48,0.00,CLR,SKC,0.00,WeatherDisplay:10.37,2013-01-22 06:21:00,
2013-01-22 00:26:00,13.8,-2.3,30.43,NE,42,0.0,0.0,48,0.00,CLR,SKC,0.00,WeatherDisplay:10.37,2013-01-22 06:26:00,
2013-01-22 00:31:00,13.8,-2.3,30.43,NE,42,1.1,1.1,48,0.00,CLR,SKC,0.00,WeatherDisplay:10.37,2013-01-22 06:31:00,
2013-01-22 00:36:00,13.8,-2.3,30.43,NE,42,2.3,2.3,48,0.00,CLR,SKC,0.00,WeatherDisplay:10.37,2013-01-22 06:36:00,
2013-01-22 00:41:00,13.8,-2.3,30.43,NE,42,1.1,1.1,48,0.00,CLR,SKC,0.00,WeatherDisplay:10.37,2013-01-22 06:41:00,
2013-01-22 00:46:00,13.8,-2.3,30.43,NE,42,0.0,0.0,48,0.00,CLR,SKC,0.00,WeatherDisplay:10.37,2013-01-22 06:46:00,
2013-01-22 00:51:00,13.8,-1.9,30.43,NE,42,0.0,0.0,49,0.00,CLR,SKC,0.00,WeatherDisplay:10.37,2013-01-22 06:51:00,
2013-01-22 00:56:00,13.8,-2.3,30.43,NE,42,0.0,0.0,48,0.00,CLR,SKC,0.00,WeatherDisplay:10.37,2013-01-22 06:56:00,
2013-01-22 01:01:00,13.8,-2.3,30.43,NE,42,1.1,0.0,48,0.00,CLR,SKC,0.00,WeatherDisplay:10.37,2013-01-22 07:01:00,
2013-01-22 01:06:00,13.8,-1.9,30.43,NE,42,1.1,1.1,49,0.00,CLR,SKC,0.00,WeatherDisplay:10.37,2013-01-22 07:06:00,
2013-01-22 01:11:00,13.8,-2.3,30.43,NE,42,0.0,0.0,48,0.00,CLR,SKC,0.00,WeatherDisplay:10.37,2013-01-22 07:11:00,
2013-01-22 01:16:00,13.8,-2.3,30.43,NE,42,1.1,1.1,48,0.00,CLR,SKC,0.00,WeatherDisplay:10.37,2013-01-22 07:16:00,
2013-01-22 01:21:00,13.8,-1.9,30.43,NE,42,0.0,0.0,49,0.00,CLR,SKC,0.00,WeatherDisplay:10.37,2013-01-22 07:21:00,
2013-01-22 01:26:00,13.8,-1.9,30.43,NE,42,2.1,2.1,49,0.00,CLR,SKC,0.00,WeatherDisplay:10.37,2013-01-22 07:26:00,
2013-01-22 01:31:00,13.8,-1.9,30.42,NE,42,1.1,1.1,49,0.00,CLR,SKC,0.00,WeatherDisplay:10.37,2013-01-22 07:31:00,
2013-01-22 01:36:00,13.8,-1.9,30.43,NE,42,1.1,1.1,49,0.00,CLR,SKC,0.00,WeatherDisplay:10.37,2013-01-22 07:36:00,
2013-01-22 01:41:00,13.8,-1.9,30.44,NE,42,0.0,0.0,49,0.00,CLR,SKC,0.00,WeatherDisplay:10.37,2013-01-22 07:41:00,
2013-01-22 01:46:00,13.8,-2.3,30.44,NE,42,0.0,0.0,48,0.00,CLR,SKC,0.00,WeatherDisplay:10.37,2013-01-22 07:46:00,
2013-01-22 01:51:00,13.8,-1.9,30.44,NE,42,1.1,1.1,49,0.00,CLR,SKC,0.00,WeatherDisplay:10.37,2013-01-22 07:51:00,
2013-01-22 01:56:00,14.0,-1.7,30.44,NE,42,0.0,0.0,49,0.00,CLR,SKC,0.00,WeatherDisplay:10.37,2013-01-22 07:56:00,
2013-01-22 02:01:00,14.0,-1.7,30.43,NE,42,1.1,1.1,49,0.00,CLR,SKC,0.00,WeatherDisplay:10.37,2013-01-22 08:01:00,
2013-01-22 02:06:00,14.0,-1.3,30.43,NE,42,1.1,1.1,50,0.00,CLR,SKC,0.00,WeatherDisplay:10.37,2013-01-22 08:06:00,
2013-01-22 02:11:00,14.0,-0.8,30.43,NE,42,1.1,1.1,51,0.00,CLR,SKC,0.00,WeatherDisplay:10.37,2013-01-22 08:11:00,
2013-01-22 02:16:00,13.8,0.6,30.43,NE,42,0.0,0.0,55,0.00,CLR,SKC,0.00,WeatherDisplay:10.37,2013-01-22 08:16:00,
2013-01-22 02:22:00,13.8,1.4,30.43,NE,42,0.0,0.0,57,0.00,CLR,SKC,0.00,WeatherDisplay:10.37,2013-01-22 08:22:00,
2013-01-22 02:27:00,13.8,1.7,30.43,NE,42,0.0,0.0,58,0.00,CLR,SKC,0.00,WeatherDisplay:10.37,2013-01-22 08:27:00,
2013-01-22 02:32:00,13.8,2.1,30.43,NE,42,1.1,0.0,59,0.00,CLR,SKC,0.00,WeatherDisplay:10.37,2013-01-22 08:32:00,
2013-01-22 02:37:00,13.6,2.3,30.43,NE,42,1.1,1.1,60,0.00,CLR,SKC,0.00,WeatherDisplay:10.37,2013-01-22 08:37:00,
2013-01-22 02:42:00,13.6,2.6,30.43,NE,42,0.0,0.0,61,0.00,CLR,SKC,0.00,WeatherDisplay:10.37,2013-01-22 08:42:00,
2013-01-22 02:47:00,13.6,3.0,30.43,NE,42,0.0,0.0,62,0.00,CLR,SKC,0.00,WeatherDisplay:10.37,2013-01-22 08:47:00,
2013-01-22 02:52:00,13.5,2.9,30.43,NE,42,0.0,0.0,62,0.00,CLR,SKC,0.00,WeatherDisplay:10.37,2013-01-22 08:52:00,
2013-01-22 02:57:00,13.5,3.2,30.44,NE,42,0.0,0.0,63,0.00,CLR,SKC,0.00,WeatherDisplay:10.37,2013-01-22 08:57:00,
2013-01-22 03:02:00,13.5,3.6,30.43,NE,42,0.0,0.0,64,0.00,CLR,SKC,0.00,WeatherDisplay:10.37,2013-01-22 09:02:00,
2013-01-22 03:07:00,13.5,3.6,30.44,NE,42,0.0,0.0,64,0.00,CLR,SKC,0.00,WeatherDisplay:10.37,2013-01-22 09:07:00,
2013-01-22 03:12:00,13.5,3.6,30.44,NE,42,0.0,0.0,64,0.00,CLR,SKC,0.00,WeatherDisplay:10.37,2013-01-22 09:12:00,
2013-01-22 03:17:00,13.3,3.7,30.44,NE,42,0.0,0.0,65,0.00,CLR,SKC,0.00,WeatherDisplay:10.37,2013-01-22 09:17:00,
2013-01-22 03:22:00,13.3,3.7,30.44,NE,42,0.0,0.0,65,0.00,CLR,SKC,0.00,WeatherDisplay:10.37,2013-01-22 09:22:00,
2013-01-22 03:27:00,13.3,4.1,30.43,NE,42,0.0,0.0,66,0.00,CLR,SKC,0.00,WeatherDisplay:10.37,2013-01-22 09:27:00,
2013-01-22 03:32:00,13.3,4.4,30.43,NE,42,1.1,1.1,67,0.00,CLR,SKC,0.00,WeatherDisplay:10.37,2013-01-22 09:32:00,
2013-01-22 03:37:00,13.1,4.2,30.43,NE,42,0.0,0.0,67,0.00,CLR,SKC,0.00,WeatherDisplay:10.37,2013-01-22 09:37:00,
2013-01-22 03:42:00,12.9,4.3,30.43,NE,42,1.1,1.1,68,0.00,CLR,SKC,0.00,WeatherDisplay:10.37,2013-01-22 09:42:00,
2013-01-22 03:47:00,12.8,4.2,30.41,NE,42,3.5,3.5,68,0.00,CLR,SKC,0.00,WeatherDisplay:10.37,2013-01-22 09:47:00,
2013-01-22 03:52:00,12.6,4.3,30.41,NE,44,0.0,0.0,69,0.00,CLR,SKC,0.00,WeatherDisplay:10.37,2013-01-22 09:52:00,
2013-01-22 03:57:00,12.6,4.3,30.42,NE,44,2.3,2.3,69,0.00,CLR,SKC,0.00,WeatherDisplay:10.37,2013-01-22 09:57:00,
2013-01-22 04:02:00,12.4,4.2,30.42,NE,44,0.0,0.0,69,0.00,CLR,SKC,0.00,WeatherDisplay:10.37,2013-01-22 10:02:00,
2013-01-22 04:07:00,12.4,4.2,30.42,NE,44,1.1,1.1,69,0.00,CLR,SKC,0.00,WeatherDisplay:10.37,2013-01-22 10:07:00,
2013-01-22 04:12:00,12.4,4.2,30.41,NE,44,2.3,2.3,69,0.00,CLR,SKC,0.00,WeatherDisplay:10.37,2013-01-22 10:12:00,
2013-01-22 04:17:00,12.3,4.1,30.41,NE,44,1.1,1.1,69,0.00,CLR,SKC,0.00,WeatherDisplay:10.37,2013-01-22 10:17:00,
2013-01-22 04:22:00,12.3,4.4,30.41,NE,44,1.1,0.0,70,0.00,CLR,SKC,0.00,WeatherDisplay:10.37,2013-01-22 10:22:00,
2013-01-22 04:27:00,12.3,4.4,30.41,NE,44,1.1,1.1,70,0.00,CLR,SKC,0.00,WeatherDisplay:10.37,2013-01-22 10:27:00,
2013-01-22 04:32:00,12.3,4.4,30.41,NE,44,1.1,1.1,70,0.00,CLR,SKC,0.00,WeatherDisplay:10.37,2013-01-22 10:32:00,
2013-01-22 04:37:00,12.3,4.4,30.41,NE,44,2.3,2.3,70,0.00,CLR,SKC,0.00,WeatherDisplay:10.37,2013-01-22 10:37:00,
2013-01-22 04:42:00,12.1,4.2,30.41,NE,44,1.1,0.0,70,0.00,CLR,SKC,0.00,WeatherDisplay:10.37,2013-01-22 10:42:00,
2013-01-22 04:47:00,12.3,4.4,30.41,NE,44,1.1,1.1,70,0.00,CLR,SKC,0.00,WeatherDisplay:10.37,2013-01-22 10:47:00,
2013-01-22 04:52:00,12.3,4.4,30.41,NE,44,0.0,0.0,70,0.00,CLR,SKC,0.00,WeatherDisplay:10.37,2013-01-22 10:52:00,
2013-01-22 04:57:00,12.3,4.7,30.40,NE,44,2.3,2.3,71,0.00,CLR,SKC,0.00,WeatherDisplay:10.37,2013-01-22 10:57:00,
2013-01-22 05:02:00,12.3,4.4,30.40,NE,44,4.6,4.6,70,0.00,CLR,SKC,0.00,WeatherDisplay:10.37,2013-01-22 11:02:00,
2013-01-22 05:12:00,12.1,4.2,30.40,NE,46,5.3,5.3,70,0.00,CLR,SKC,0.00,WeatherDisplay:10.37,2013-01-22 11:12:00,
2013-01-22 05:17:00,11.9,4.0,30.40,ENE,58,5.8,5.8,70,0.00,CLR,SKC,0.00,WeatherDisplay:10.37,2013-01-22 11:17:00,
2013-01-22 05:22:00,11.7,3.8,30.40,ENE,58,3.5,3.5,70,0.00,CLR,SKC,0.00,WeatherDisplay:10.37,2013-01-22 11:22:00,
2013-01-22 05:27:00,11.6,3.7,30.39,ENE,58,5.3,5.3,70,0.00,CLR,SKC,0.00,WeatherDisplay:10.37,2013-01-22 11:27:00,
2013-01-22 05:32:00,11.6,4.0,30.40,ENE,58,1.1,1.1,71,0.00,CLR,SKC,0.00,WeatherDisplay:10.37,2013-01-22 11:32:00,
2013-01-22 05:37:00,11.4,3.8,30.40,ENE,58,1.1,1.1,71,0.00,CLR,SKC,0.00,WeatherDisplay:10.37,2013-01-22 11:37:00,
2013-01-22 05:42:00,11.4,3.8,30.40,ENE,58,0.0,0.0,71,0.00,CLR,SKC,0.00,WeatherDisplay:10.37,2013-01-22 11:42:00,
2013-01-22 05:47:00,11.4,4.1,30.40,ENE,58,0.0,0.0,72,0.00,CLR,SKC,0.00,WeatherDisplay:10.37,2013-01-22 11:47:00,
2013-01-22 05:52:00,11.4,4.4,30.40,ENE,58,1.1,1.1,73,0.00,CLR,SKC,0.00,WeatherDisplay:10.37,2013-01-22 11:52:00,
2013-01-22 05:57:00,11.6,4.6,30.40,ENE,58,0.0,0.0,73,0.00,CLR,SKC,0.00,WeatherDisplay:10.37,2013-01-22 11:57:00,
2013-01-22 06:02:00,11.6,4.6,30.39,ENE,58,1.1,1.1,73,0.00,CLR,SKC,0.00,WeatherDisplay:10.37,2013-01-22 12:02:00,
2013-01-22 06:07:00,11.6,4.6,30.39,ENE,58,3.5,3.5,73,0.00,CLR,SKC,0.00,WeatherDisplay:10.37,2013-01-22 12:07:00,
2013-01-22 06:12:00,11.6,4.6,30.40,ENE,58,3.5,3.5,73,0.00,CLR,SKC,0.00,WeatherDisplay:10.37,2013-01-22 12:12:00,
2013-01-22 06:17:00,11.7,5.0,30.40,ENE,58,3.2,3.2,74,0.00,CLR,SKC,0.00,WeatherDisplay:10.37,2013-01-22 12:17:00,
2013-01-22 06:23:00,11.7,5.0,30.40,ENE,58,2.3,2.3,74,0.00,CLR,SKC,0.00,WeatherDisplay:10.37,2013-01-22 12:23:00,
2013-01-22 06:28:00,11.7,5.0,30.40,ENE,58,5.8,5.8,74,0.00,CLR,SKC,0.00,WeatherDisplay:10.37,2013-01-22 12:28:00,
2013-01-22 06:33:00,11.7,5.0,30.41,ENE,60,5.3,5.3,74,0.00,CLR,SKC,0.00,WeatherDisplay:10.37,2013-01-22 12:33:00,
2013-01-22 06:38:00,11.7,5.0,30.41,ENE,62,5.8,5.8,74,0.00,CLR,SKC,0.00,WeatherDisplay:10.37,2013-01-22 12:38:00,
2013-01-22 06:43:00,11.7,4.7,30.41,ESE,117,4.6,4.6,73,0.00,CLR,SKC,0.00,WeatherDisplay:10.37,2013-01-22 12:43:00,
2013-01-22 06:48:00,11.9,5.2,30.41,ESE,118,7.4,7.4,74,0.00,CLR,SKC,0.00,WeatherDisplay:10.37,2013-01-22 12:48:00,
2013-01-22 06:53:00,11.9,4.9,30.41,ESE,116,7.4,7.4,73,0.00,CLR,SKC,0.00,WeatherDisplay:10.37,2013-01-22 12:53:00,
2013-01-22 06:58:00,11.9,4.9,30.42,ESE,110,5.8,5.8,73,0.00,CLR,SKC,0.00,WeatherDisplay:10.37,2013-01-22 12:58:00,
2013-01-22 07:03:00,11.9,4.9,30.42,ESE,121,5.8,5.8,73,0.00,CLR,SKC,0.00,WeatherDisplay:10.37,2013-01-22 13:03:00,
2013-01-22 07:08:00,11.9,4.9,30.43,ESE,121,3.5,3.5,73,0.00,CLR,SKC,0.00,WeatherDisplay:10.37,2013-01-22 13:08:00,
2013-01-22 07:13:00,11.9,4.9,30.42,ESE,110,6.9,6.9,73,0.00,CLR,SKC,0.00,WeatherDisplay:10.37,2013-01-22 13:13:00,
2013-01-22 07:18:00,11.9,4.9,30.42,ESE,108,6.9,6.9,73,0.00,CLR,SKC,0.00,WeatherDisplay:10.37,2013-01-22 13:18:00,
2013-01-22 07:23:00,12.1,5.1,30.43,ESE,106,6.9,6.9,73,0.00,CLR,SKC,0.00,WeatherDisplay:10.37,2013-01-22 13:23:00,
2013-01-22 07:29:00,11.9,4.9,30.43,ESE,106,4.6,4.6,73,0.00,CLR,SKC,0.00,WeatherDisplay:10.37,2013-01-22 13:29:00,
2013-01-22 07:34:00,11.7,4.7,30.43,ESE,106,6.9,6.9,73,0.00,CLR,SKC,0.00,WeatherDisplay:10.37,2013-01-22 13:34:00,
2013-01-22 07:39:00,11.7,4.7,30.43,ESE,106,6.9,6.9,73,0.00,CLR,SKC,0.00,WeatherDisplay:10.37,2013-01-22 13:39:00,
2013-01-22 07:44:00,11.6,4.9,30.43,ESE,107,5.8,5.8,74,0.00,CLR,SKC,0.00,WeatherDisplay:10.37,2013-01-22 13:44:00,
2013-01-22 07:49:00,11.6,4.9,30.43,ESE,107,5.8,5.8,74,0.00,CLR,SKC,0.00,WeatherDisplay:10.37,2013-01-22 13:49:00,
2013-01-22 07:54:00,11.6,4.9,30.43,ESE,107,4.2,4.2,74,0.00,CLR,SKC,0.00,WeatherDisplay:10.37,2013-01-22 13:54:00,
2013-01-22 07:59:00,11.6,4.9,30.43,ESE,106,4.6,4.6,74,0.00,CLR,SKC,0.00,WeatherDisplay:10.37,2013-01-22 13:59:00,
2013-01-22 08:04:00,11.6,4.9,30.43,ESE,107,6.9,6.9,74,0.00,CLR,SKC,0.00,WeatherDisplay:10.37,2013-01-22 14:04:00,
2013-01-22 08:09:00,11.7,5.0,30.43,ESE,106,6.4,6.4,74,0.00,CLR,SKC,0.00,WeatherDisplay:10.37,2013-01-22 14:09:00,
2013-01-22 08:14:00,11.7,5.0,30.43,ESE,106,5.8,5.8,74,0.00,CLR,SKC,0.00,WeatherDisplay:10.37,2013-01-22 14:14:00,
2013-01-22 08:19:00,11.9,5.2,30.44,ESE,106,5.3,5.3,74,0.00,CLR,SKC,0.00,WeatherDisplay:10.37,2013-01-22 14:19:00,
2013-01-22 08:24:00,11.9,5.2,30.44,ESE,110,6.9,6.9,74,0.00,CLR,SKC,0.00,WeatherDisplay:10.37,2013-01-22 14:24:00,
2013-01-22 08:29:00,12.1,5.4,30.45,East,100,4.6,4.6,74,0.00,CLR,SKC,0.00,WeatherDisplay:10.37,2013-01-22 14:29:00,
2013-01-22 08:34:00,12.3,5.3,30.44,East,100,3.5,3.5,73,0.00,CLR,SKC,0.00,WeatherDisplay:10.37,2013-01-22 14:34:00,
2013-01-22 08:39:00,12.4,5.4,30.44,ESE,114,6.9,6.9,73,0.00,CLR,SKC,0.00,WeatherDisplay:10.37,2013-01-22 14:39:00,
2013-01-22 08:44:00,12.6,5.6,30.44,East,99,7.4,7.4,73,0.00,CLR,SKC,0.00,WeatherDisplay:10.37,2013-01-22 14:44:00,
2013-01-22 08:49:00,12.6,5.3,30.44,ESE,118,6.9,6.9,72,0.00,CLR,SKC,0.00,WeatherDisplay:10.37,2013-01-22 14:49:00,
2013-01-22 08:54:00,12.8,5.5,30.45,ESE,111,6.9,6.9,72,0.00,CLR,SKC,0.00,WeatherDisplay:10.37,2013-01-22 14:54:00,
2013-01-22 08:59:00,12.9,5.3,30.44,East,100,8.1,8.1,71,0.00,CLR,SKC,0.00,WeatherDisplay:10.37,2013-01-22 14:59:00,
2013-01-22 09:04:00,13.1,5.5,30.45,ESE,113,8.5,8.5,71,0.00,CLR,SKC,0.00,WeatherDisplay:10.37,2013-01-22 15:04:00,
2013-01-22 09:09:00,13.1,5.1,30.45,ESE,118,6.9,6.9,70,0.00,CLR,SKC,0.00,WeatherDisplay:10.37,2013-01-22 15:09:00,
2013-01-22 09:14:00,13.1,5.1,30.45,ESE,108,6.9,6.9,70,0.00,CLR,SKC,0.00,WeatherDisplay:10.37,2013-01-22 15:14:00,
2013-01-22 09:19:00,13.1,4.8,30.45,ESE,106,8.5,8.5,69,0.00,CLR,SKC,0.00,WeatherDisplay:10.37,2013-01-22 15:19:00,
2013-01-22 09:24:00,13.3,5.0,30.45,SE,134,6.9,6.9,69,0.00,CLR,SKC,0.00,WeatherDisplay:10.37,2013-01-22 15:24:00,
2013-01-22 09:29:00,13.5,5.2,30.45,SE,124,6.9,6.9,69,0.00,CLR,SKC,0.00,WeatherDisplay:10.37,2013-01-22 15:29:00,
2013-01-22 09:34:00,13.8,5.5,30.45,East,100,8.5,8.5,69,0.00,CLR,SKC,0.00,WeatherDisplay:10.37,2013-01-22 15:34:00,
2013-01-22 09:39:00,14.1,5.8,30.45,ESE,121,7.4,7.4,69,0.00,CLR,SKC,0.00,WeatherDisplay:10.37,2013-01-22 15:39:00,
2013-01-22 09:44:00,14.3,5.7,30.45,ESE,103,7.4,7.4,68,0.00,CLR,SKC,0.00,WeatherDisplay:10.37,2013-01-22 15:44:00,
2013-01-22 09:49:00,14.4,5.4,30.45,SE,142,7.4,7.4,67,0.00,CLR,SKC,0.00,WeatherDisplay:10.37,2013-01-22 15:49:00,
2013-01-22 09:54:00,14.6,5.6,30.45,SE,144,6.9,6.9,67,0.00,CLR,SKC,0.00,WeatherDisplay:10.37,2013-01-22 15:54:00,
2013-01-22 09:59:00,14.8,5.5,30.46,SE,140,8.1,8.1,66,0.00,CLR,SKC,0.00,WeatherDisplay:10.37,2013-01-22 15:59:00,
2013-01-22 10:04:00,14.9,5.6,30.45,SE,137,8.1,8.1,66,0.00,CLR,SKC,0.00,WeatherDisplay:10.37,2013-01-22 16:04:00,
2013-01-22 10:09:00,15.1,5.8,30.46,SSE,147,8.5,8.5,66,0.00,CLR,SKC,0.00,WeatherDisplay:10.37,2013-01-22 16:09:00,
2013-01-22 10:14:00,15.4,5.7,30.46,SE,138,6.9,6.9,65,0.00,CLR,SKC,0.00,WeatherDisplay:10.37,2013-01-22 16:14:00,
2013-01-22 10:19:00,15.4,5.7,30.46,East,99,9.2,9.2,65,0.00,CLR,SKC,0.00,WeatherDisplay:10.37,2013-01-22 16:19:00,
2013-01-22 10:24:00,15.6,5.9,30.46,ESE,103,10.6,10.6,65,0.00,CLR,SKC,0.00,WeatherDisplay:10.37,2013-01-22 16:24:00,
2013-01-22 10:29:00,15.9,6.2,30.46,SSE,155,6.9,6.9,65,0.00,CLR,SKC,0.00,WeatherDisplay:10.37,2013-01-22 16:29:00,
2013-01-22 10:34:00,16.1,6.1,30.46,SSE,152,8.5,8.5,64,0.00,CLR,SKC,0.00,WeatherDisplay:10.37,2013-01-22 16:34:00,
2013-01-22 10:39:00,16.4,6.0,30.46,SE,128,8.1,8.1,63,0.00,CLR,SKC,0.00,WeatherDisplay:10.37,2013-01-22 16:39:00,
2013-01-22 10:44:00,16.5,6.1,30.45,SSE,161,6.9,6.9,63,0.00,CLR,SKC,0.00,WeatherDisplay:10.37,2013-01-22 16:44:00,
2013-01-22 10:49:00,16.7,5.9,30.45,SE,132,7.4,7.4,62,0.00,CLR,SKC,0.00,WeatherDisplay:10.37,2013-01-22 16:49:00,
2013-01-22 10:54:00,16.9,6.1,30.45,SE,142,6.9,6.9,62,0.00,CLR,SKC,0.00,WeatherDisplay:10.37,2013-01-22 16:54:00,
2013-01-22 10:59:00,17.2,6.4,30.45,ESE,114,7.4,7.4,62,0.00,CLR,SKC,0.00,WeatherDisplay:10.37,2013-01-22 16:59:00,
2013-01-22 11:04:00,17.3,6.5,30.45,ESE,108,8.5,8.5,62,0.00,CLR,SKC,0.00,WeatherDisplay:10.37,2013-01-22 17:04:00,
2013-01-22 11:09:00,17.3,6.5,30.45,ESE,121,8.5,8.5,62,0.00,CLR,SKC,0.00,WeatherDisplay:10.37,2013-01-22 17:09:00,
2013-01-22 11:14:00,17.7,6.9,30.45,SE,141,9.5,9.5,62,0.00,CLR,SKC,0.00,WeatherDisplay:10.37,2013-01-22 17:14:00,
2013-01-22 11:19:00,17.7,6.9,30.44,SSE,151,7.4,7.4,62,0.00,CLR,SKC,0.00,WeatherDisplay:10.37,2013-01-22 17:19:00,
2013-01-22 11:24:00,17.8,7.0,30.44,South,178,6.9,6.9,62,0.00,CLR,SKC,0.00,WeatherDisplay:10.37,2013-01-22 17:24:00,
2013-01-22 11:29:00,18.0,6.8,30.44,SE,124,10.4,10.4,61,0.00,CLR,SKC,0.00,WeatherDisplay:10.37,2013-01-22 17:29:00,
2013-01-22 11:35:00,18.0,6.8,30.43,ESE,108,8.5,8.5,61,0.00,CLR,SKC,0.00,WeatherDisplay:10.37,2013-01-22 17:35:00,
2013-01-22 11:40:00,18.1,6.9,30.43,SSE,155,10.6,10.6,61,0.00,CLR,SKC,0.00,WeatherDisplay:10.37,2013-01-22 17:40:00,
2013-01-22 11:45:00,18.6,7.0,30.42,East,101,11.7,11.7,60,0.00,CLR,SKC,0.00,WeatherDisplay:10.37,2013-01-22 17:45:00,
2013-01-22 11:50:00,18.9,7.3,30.42,SSE,152,11.5,11.5,60,0.00,CLR,SKC,0.00,WeatherDisplay:10.37,2013-01-22 17:50:00,
2013-01-22 11:55:00,19.1,7.1,30.42,SSE,155,8.5,8.5,59,0.00,CLR,SKC,0.00,WeatherDisplay:10.37,2013-01-22 17:55:00,
2013-01-22 12:00:00,19.2,6.8,30.42,SSE,164,11.5,11.5,58,0.00,CLR,SKC,0.00,WeatherDisplay:10.37,2013-01-22 18:00:00,
2013-01-22 12:05:00,19.1,6.3,30.42,SSE,147,6.9,6.9,57,0.00,CLR,SKC,0.00,WeatherDisplay:10.37,2013-01-22 18:05:00,
2013-01-22 12:10:00,19.4,7.0,30.41,SSE,151,6.9,6.9,58,0.00,CLR,SKC,0.00,WeatherDisplay:10.37,2013-01-22 18:10:00,
2013-01-22 12:15:00,19.7,6.9,30.40,SE,141,10.6,10.6,57,0.00,CLR,SKC,0.00,WeatherDisplay:10.37,2013-01-22 18:15:00,
2013-01-22 12:20:00,19.9,7.1,30.40,SSE,149,9.5,9.5,57,0.00,CLR,SKC,0.00,WeatherDisplay:10.37,2013-01-22 18:20:00,
2013-01-22 12:25:00,20.0,6.8,30.40,South,179,8.5,8.5,56,0.00,CLR,SKC,0.00,WeatherDisplay:10.37,2013-01-22 18:25:00,
2013-01-22 12:30:00,20.2,6.6,30.40,SSE,149,6.9,6.9,55,0.00,CLR,SKC,0.00,WeatherDisplay:10.37,2013-01-22 18:30:00,
2013-01-22 12:35:00,20.5,6.9,30.39,SSE,151,8.5,8.5,55,0.00,CLR,SKC,0.00,WeatherDisplay:10.37,2013-01-22 18:35:00,
2013-01-22 12:40:00,20.8,6.7,30.39,South,178,5.8,5.8,54,0.00,CLR,SKC,0.00,WeatherDisplay:10.37,2013-01-22 18:40:00,
2013-01-22 12:45:00,21.1,6.6,30.39,South,185,6.4,6.4,53,0.00,CLR,SKC,0.00,WeatherDisplay:10.37,2013-01-22 18:45:00,
2013-01-22 12:50:00,21.1,6.6,30.39,SE,141,11.7,11.7,53,0.00,CLR,SKC,0.00,WeatherDisplay:10.37,2013-01-22 18:50:00,
2013-01-22 12:55:00,21.0,6.5,30.38,SE,124,7.4,7.4,53,0.00,CLR,SKC,0.00,WeatherDisplay:10.37,2013-01-22 18:55:00,
2013-01-22 13:00:00,21.3,6.8,30.38,SE,140,7.4,7.4,53,0.00,CLR,SKC,0.00,WeatherDisplay:10.37,2013-01-22 19:00:00,
2013-01-22 13:05:00,21.6,6.7,30.37,ESE,108,11.7,11.7,52,0.00,CLR,SKC,0.00,WeatherDisplay:10.37,2013-01-22 19:05:00,
2013-01-22 13:10:00,21.4,6.5,30.38,SSE,154,6.9,6.9,52,0.00,CLR,SKC,0.00,WeatherDisplay:10.37,2013-01-22 19:10:00,
2013-01-22 13:15:00,21.6,6.7,30.37,SSE,154,6.9,6.9,52,0.00,CLR,SKC,0.00,WeatherDisplay:10.37,2013-01-22 19:15:00,
2013-01-22 13:20:00,21.8,6.4,30.37,South,173,3.5,3.5,51,0.00,CLR,SKC,0.00,WeatherDisplay:10.37,2013-01-22 19:20:00,
2013-01-22 13:25:00,22.2,6.4,30.36,SSE,147,9.2,9.2,50,0.00,CLR,SKC,0.00,WeatherDisplay:10.37,2013-01-22 19:25:00,
2013-01-22 13:30:00,22.5,6.6,30.36,SSE,147,6.9,6.9,50,0.00,CLR,SKC,0.00,WeatherDisplay:10.37,2013-01-22 19:30:00,
2013-01-22 13:35:00,22.7,6.4,30.35,SE,131,8.5,8.5,49,0.00,CLR,SKC,0.00,WeatherDisplay:10.37,2013-01-22 19:35:00,
2013-01-22 13:40:00,22.7,6.4,30.35,SE,141,5.8,5.8,49,0.00,CLR,SKC,0.00,WeatherDisplay:10.37,2013-01-22 19:40:00,
2013-01-22 13:45:00,22.9,6.6,30.35,SE,145,4.6,4.6,49,0.00,CLR,SKC,0.00,WeatherDisplay:10.37,2013-01-22 19:45:00,
2013-01-22 13:50:00,23.3,6.5,30.34,South,173,6.4,6.4,48,0.00,CLR,SKC,0.00,WeatherDisplay:10.37,2013-01-22 19:50:00,
2013-01-22 13:55:00,23.5,6.7,30.33,SSE,161,8.5,8.5,48,0.00,CLR,SKC,0.00,WeatherDisplay:10.37,2013-01-22 19:55:00,
2013-01-22 14:00:00,23.2,6.4,30.33,South,173,6.9,6.9,48,0.00,CLR,SKC,0.00,WeatherDisplay:10.37,2013-01-22 20:00:00,
2013-01-22 14:05:00,23.2,6.4,30.34,SE,135,4.6,4.6,48,0.00,CLR,SKC,0.00,WeatherDisplay:10.37,2013-01-22 20:05:00,
2013-01-22 14:10:00,23.2,6.4,30.33,SE,134,10.4,10.4,48,0.00,CLR,SKC,0.00,WeatherDisplay:10.37,2013-01-22 20:10:00,
2013-01-22 14:15:00,23.2,6.8,30.33,SSE,168,8.5,8.5,49,0.00,CLR,SKC,0.00,WeatherDisplay:10.37,2013-01-22 20:15:00,
2013-01-22 14:20:00,23.5,6.7,30.33,SE,144,12.7,12.7,48,0.00,CLR,SKC,0.00,WeatherDisplay:10.37,2013-01-22 20:20:00,
2013-01-22 14:25:00,23.6,6.8,30.33,South,189,6.9,6.9,48,0.00,CLR,SKC,0.00,WeatherDisplay:10.37,2013-01-22 20:25:00,
2013-01-22 14:30:00,23.8,6.9,30.33,SE,141,10.6,10.6,48,0.00,CLR,SKC,0.00,WeatherDisplay:10.37,2013-01-22 20:30:00,
2013-01-22 14:35:00,23.8,6.9,30.32,SE,140,12.7,12.7,48,0.00,CLR,SKC,0.00,WeatherDisplay:10.37,2013-01-22 20:35:00,
2013-01-22 14:40:00,23.9,7.0,30.32,ESE,123,8.5,8.5,48,0.00,CLR,SKC,0.00,WeatherDisplay:10.37,2013-01-22 20:40:00,
2013-01-22 14:45:00,23.9,6.6,30.32,ESE,118,7.4,7.4,47,0.00,CLR,SKC,0.00,WeatherDisplay:10.37,2013-01-22 20:45:00,
2013-01-22 14:50:00,24.1,7.2,30.32,SE,138,6.9,6.9,48,0.00,CLR,SKC,0.00,WeatherDisplay:10.37,2013-01-22 20:50:00,
2013-01-22 14:55:00,24.2,7.3,30.32,SE,144,6.4,6.4,48,0.00,CLR,SKC,0.00,WeatherDisplay:10.37,2013-01-22 20:55:00,
2013-01-22 15:00:00,24.5,7.1,30.32,South,171,6.9,6.9,47,0.00,CLR,SKC,0.00,WeatherDisplay:10.37,2013-01-22 21:00:00,
2013-01-22 15:05:00,24.7,7.3,30.32,SSE,158,10.6,10.6,47,0.00,CLR,SKC,0.00,WeatherDisplay:10.37,2013-01-22 21:05:00,
2013-01-22 15:10:00,24.4,7.0,30.32,East,99,7.4,7.4,47,0.00,CLR,SKC,0.00,WeatherDisplay:10.37,2013-01-22 21:10:00,
2013-01-22 15:15:00,24.4,7.5,30.32,SSE,149,10.6,10.6,48,0.00,CLR,SKC,0.00,WeatherDisplay:10.37,2013-01-22 21:15:00,
2013-01-22 15:20:00,24.5,7.6,30.32,ESE,121,6.9,6.9,48,0.00,CLR,SKC,0.00,WeatherDisplay:10.37,2013-01-22 21:20:00,
2013-01-22 15:25:00,24.5,7.1,30.32,ESE,121,7.4,7.4,47,0.00,CLR,SKC,0.00,WeatherDisplay:10.37,2013-01-22 21:25:00,
2013-01-22 15:31:00,24.8,7.9,30.32,SSE,149,9.2,9.2,48,0.00,CLR,SKC,0.00,WeatherDisplay:10.37,2013-01-22 21:31:00,
2013-01-22 15:36:00,24.8,7.4,30.32,South,190,6.9,6.9,47,0.00,CLR,SKC,0.00,WeatherDisplay:10.37,2013-01-22 21:36:00,
2013-01-22 15:41:00,25.3,7.4,30.32,ESE,116,7.4,7.4,46,0.00,CLR,SKC,0.00,WeatherDisplay:10.37,2013-01-22 21:41:00,
2013-01-22 15:46:00,25.1,7.7,30.32,SE,140,6.9,6.9,47,0.00,CLR,SKC,0.00,WeatherDisplay:10.37,2013-01-22 21:46:00,
2013-01-22 15:51:00,25.0,7.6,30.32,SE,138,3.5,3.5,47,0.00,CLR,SKC,0.00,WeatherDisplay:10.37,2013-01-22 21:51:00,
2013-01-22 15:57:00,25.1,7.7,30.32,SE,144,7.4,7.4,47,0.00,CLR,SKC,0.00,WeatherDisplay:10.37,2013-01-22 21:57:00,
2013-01-22 16:02:00,25.3,7.9,30.32,South,171,2.3,2.3,47,0.00,CLR,SKC,0.00,WeatherDisplay:10.37,2013-01-22 22:02:00,
2013-01-22 16:07:00,25.3,7.9,30.31,SSE,158,6.9,6.9,47,0.00,CLR,SKC,0.00,WeatherDisplay:10.37,2013-01-22 22:07:00,
2013-01-22 16:12:00,25.3,7.9,30.31,SE,144,7.4,7.4,47,0.00,CLR,SKC,0.00,WeatherDisplay:10.37,2013-01-22 22:12:00,
2013-01-22 16:17:00,25.1,8.1,30.32,South,182,3.5,3.5,48,0.00,CLR,SKC,0.00,WeatherDisplay:10.37,2013-01-22 22:17:00,
2013-01-22 16:22:00,25.1,7.7,30.31,SSE,147,6.4,6.4,47,0.00,CLR,SKC,0.00,WeatherDisplay:10.37,2013-01-22 22:22:00,
2013-01-22 16:27:00,25.1,8.1,30.31,SE,141,7.4,7.4,48,0.00,CLR,SKC,0.00,WeatherDisplay:10.37,2013-01-22 22:27:00,
2013-01-22 16:32:00,25.1,8.1,30.31,SSE,149,3.5,3.5,48,0.00,CLR,SKC,0.00,WeatherDisplay:10.37,2013-01-22 22:32:00,
2013-01-22 16:38:00,24.8,7.9,30.31,SE,131,2.3,2.3,48,0.00,CLR,SKC,0.00,WeatherDisplay:10.37,2013-01-22 22:38:00,
2013-01-22 16:43:00,24.8,7.9,30.31,SSE,159,5.8,5.8,48,0.00,CLR,SKC,0.00,WeatherDisplay:10.37,2013-01-22 22:43:00,
2013-01-22 16:48:00,24.7,8.2,30.31,SSE,159,2.3,2.3,49,0.00,CLR,SKC,0.00,WeatherDisplay:10.37,2013-01-22 22:48:00,
2013-01-22 16:53:00,24.5,8.0,30.31,SSE,158,2.3,0.0,49,0.00,CLR,SKC,0.00,WeatherDisplay:10.37,2013-01-22 22:53:00,
2013-01-22 16:58:00,24.5,8.0,30.31,SSE,158,1.1,1.1,49,0.00,CLR,SKC,0.00,WeatherDisplay:10.37,2013-01-22 22:58:00,
2013-01-22 17:03:00,24.4,8.4,30.32,SSE,158,1.1,1.1,50,0.00,CLR,SKC,0.00,WeatherDisplay:10.37,2013-01-22 23:03:00,
2013-01-22 17:08:00,24.4,8.4,30.32,SSE,158,0.0,0.0,50,0.00,CLR,SKC,0.00,WeatherDisplay:10.37,2013-01-22 23:08:00,
2013-01-22 17:13:00,24.2,8.2,30.32,SSE,158,1.1,1.1,50,0.00,CLR,SKC,0.00,WeatherDisplay:10.37,2013-01-22 23:13:00,
2013-01-22 17:18:00,24.1,8.6,30.32,SSE,158,2.3,2.3,51,0.00,CLR,SKC,0.00,WeatherDisplay:10.37,2013-01-22 23:18:00,
2013-01-22 17:23:00,23.6,8.5,30.32,SSE,158,1.1,1.1,52,0.00,CLR,SKC,0.00,WeatherDisplay:10.37,2013-01-22 23:23:00,
2013-01-22 17:28:00,23.2,8.2,30.33,SSE,158,1.1,0.0,52,0.00,CLR,SKC,0.00,WeatherDisplay:10.37,2013-01-22 23:28:00,
2013-01-22 17:33:00,22.9,8.3,30.32,SSE,158,1.1,0.0,53,0.00,CLR,SKC,0.00,WeatherDisplay:10.37,2013-01-22 23:33:00,
2013-01-22 17:38:00,22.5,7.9,30.32,SSE,158,2.3,2.3,53,0.00,CLR,SKC,0.00,WeatherDisplay:10.37,2013-01-22 23:38:00,
2013-01-22 17:43:00,22.2,8.1,30.32,SSE,158,2.3,2.3,54,0.00,CLR,SKC,0.00,WeatherDisplay:10.37,2013-01-22 23:43:00,
2013-01-22 17:48:00,22.1,8.0,30.32,SSE,158,1.1,1.1,54,0.00,CLR,SKC,0.00,WeatherDisplay:10.37,2013-01-22 23:48:00,
2013-01-22 17:53:00,21.9,7.8,30.32,SSE,158,2.3,2.3,54,0.00,CLR,SKC,0.00,WeatherDisplay:10.37,2013-01-22 23:53:00,
2013-01-22 17:58:00,21.6,7.9,30.32,SSE,158,0.0,0.0,55,0.00,CLR,SKC,0.00,WeatherDisplay:10.37,2013-01-22 23:58:00,
2013-01-22 18:03:00,21.3,8.0,30.33,SSE,158,1.1,1.1,56,0.00,CLR,SKC,0.00,WeatherDisplay:10.37,2013-01-23 00:03:00,
2013-01-22 18:08:00,21.0,7.7,30.33,SSE,158,1.1,1.1,56,0.00,CLR,SKC,0.00,WeatherDisplay:10.37,2013-01-23 00:08:00,
2013-01-22 18:13:00,21.0,7.7,30.32,SSE,158,0.0,0.0,56,0.00,CLR,SKC,0.00,WeatherDisplay:10.37,2013-01-23 00:13:00,
2013-01-22 18:18:00,20.6,7.8,30.32,SSE,158,3.5,3.5,57,0.00,CLR,SKC,0.00,WeatherDisplay:10.37,2013-01-23 00:18:00,
2013-01-22 18:23:00,20.5,8.0,30.32,SSE,158,2.3,2.3,58,0.00,CLR,SKC,0.00,WeatherDisplay:10.37,2013-01-23 00:23:00,
2013-01-22 18:28:00,20.3,7.9,30.32,SSE,158,3.5,3.5,58,0.00,CLR,SKC,0.00,WeatherDisplay:10.37,2013-01-23 00:28:00,
2013-01-22 18:33:00,20.2,7.8,30.32,SSE,156,4.6,4.6,58,0.00,CLR,SKC,0.00,WeatherDisplay:10.37,2013-01-23 00:33:00,
2013-01-22 18:38:00,20.0,8.0,30.32,SSE,156,2.3,2.3,59,0.00,CLR,SKC,0.00,WeatherDisplay:10.37,2013-01-23 00:38:00,
2013-01-22 18:43:00,19.9,7.9,30.33,SSE,156,1.1,1.1,59,0.00,CLR,SKC,0.00,WeatherDisplay:10.37,2013-01-23 00:43:00,
2013-01-22 18:48:00,19.5,7.9,30.33,SSE,156,1.1,1.1,60,0.00,CLR,SKC,0.00,WeatherDisplay:10.37,2013-01-23 00:48:00,
2013-01-22 18:53:00,19.2,7.6,30.33,SSE,156,2.3,2.3,60,0.00,CLR,SKC,0.00,WeatherDisplay:10.37,2013-01-23 00:53:00,
2013-01-22 18:58:00,18.9,7.7,30.33,SSE,156,1.1,1.1,61,0.00,CLR,SKC,0.00,WeatherDisplay:10.37,2013-01-23 00:58:00,
2013-01-22 19:03:00,18.8,7.6,30.33,SSE,156,0.0,0.0,61,0.00,CLR,SKC,0.00,WeatherDisplay:10.37,2013-01-23 01:03:00,
2013-01-22 19:08:00,18.6,7.4,30.33,SSE,156,1.1,0.0,61,0.00,CLR,SKC,0.00,WeatherDisplay:10.37,2013-01-23 01:08:00,
2013-01-22 19:13:00,18.8,7.9,30.33,SSE,156,2.3,2.3,62,0.00,CLR,SKC,0.00,WeatherDisplay:10.37,2013-01-23 01:13:00,
2013-01-22 19:18:00,18.9,7.7,30.33,SSE,156,2.3,2.3,61,0.00,CLR,SKC,0.00,WeatherDisplay:10.37,2013-01-23 01:18:00,
2013-01-22 19:23:00,18.9,7.7,30.33,SSE,156,1.1,1.1,61,0.00,CLR,SKC,0.00,WeatherDisplay:10.37,2013-01-23 01:23:00,
2013-01-22 19:28:00,18.9,8.0,30.33,SSE,156,3.5,3.5,62,0.00,CLR,SKC,0.00,WeatherDisplay:10.37,2013-01-23 01:28:00,
2013-01-22 19:33:00,18.9,8.0,30.33,SSE,156,2.3,2.3,62,0.00,CLR,SKC,0.00,WeatherDisplay:10.37,2013-01-23 01:33:00,
2013-01-22 19:38:00,18.9,7.7,30.33,SSE,156,3.5,3.5,61,0.00,CLR,SKC,0.00,WeatherDisplay:10.37,2013-01-23 01:38:00,
2013-01-22 19:43:00,18.8,7.9,30.33,SSE,156,2.3,2.3,62,0.00,CLR,SKC,0.00,WeatherDisplay:10.37,2013-01-23 01:43:00,
2013-01-22 19:48:00,18.6,7.7,30.33,SSE,156,3.2,3.2,62,0.00,CLR,SKC,0.00,WeatherDisplay:10.37,2013-01-23 01:48:00,
2013-01-22 19:53:00,18.6,7.7,30.32,SSE,156,3.5,3.5,62,0.00,CLR,SKC,0.00,WeatherDisplay:10.37,2013-01-23 01:53:00,
2013-01-22 19:58:00,18.3,7.8,30.32,SSE,156,2.3,2.3,63,0.00,CLR,SKC,0.00,WeatherDisplay:10.37,2013-01-23 01:58:00,
2013-01-22 20:03:00,18.1,7.6,30.31,SSE,156,0.0,0.0,63,0.00,CLR,SKC,0.00,WeatherDisplay:10.37,2013-01-23 02:03:00,
2013-01-22 20:08:00,18.0,7.5,30.31,SSE,156,0.0,0.0,63,0.00,CLR,SKC,0.00,WeatherDisplay:10.37,2013-01-23 02:08:00,
2013-01-22 20:13:00,18.0,7.5,30.31,SSE,156,0.0,0.0,63,0.00,CLR,SKC,0.00,WeatherDisplay:10.37,2013-01-23 02:13:00,
2013-01-22 20:18:00,18.0,7.5,30.32,SSE,156,0.0,0.0,63,0.00,CLR,SKC,0.00,WeatherDisplay:10.37,2013-01-23 02:18:00,
2013-01-22 20:23:00,17.7,7.6,30.32,SSE,156,0.0,0.0,64,0.00,CLR,SKC,0.00,WeatherDisplay:10.37,2013-01-23 02:23:00,
2013-01-22 20:28:00,17.5,7.4,30.32,SSE,156,2.3,2.3,64,0.00,CLR,SKC,0.00,WeatherDisplay:10.37,2013-01-23 02:28:00,
2013-01-22 20:33:00,17.5,7.4,30.33,SSE,156,2.3,2.3,64,0.00,CLR,SKC,0.00,WeatherDisplay:10.37,2013-01-23 02:33:00,
2013-01-22 20:38:00,17.2,7.1,30.32,SSE,156,0.0,0.0,64,0.00,CLR,SKC,0.00,WeatherDisplay:10.37,2013-01-23 02:38:00,
2013-01-22 20:43:00,16.9,6.8,30.32,SSE,156,0.0,0.0,64,0.00,CLR,SKC,0.00,WeatherDisplay:10.37,2013-01-23 02:43:00,
2013-01-22 20:48:00,16.4,7.0,30.32,SSE,156,0.0,0.0,66,0.00,CLR,SKC,0.00,WeatherDisplay:10.37,2013-01-23 02:48:00,
2013-01-22 20:53:00,16.1,6.7,30.32,SSE,156,0.0,0.0,66,0.00,CLR,SKC,0.00,WeatherDisplay:10.37,2013-01-23 02:53:00,
2013-01-22 20:58:00,15.7,6.7,30.32,SSE,156,0.0,0.0,67,0.00,CLR,SKC,0.00,WeatherDisplay:10.37,2013-01-23 02:58:00,
2013-01-22 21:03:00,15.4,6.4,30.31,SSE,156,0.0,0.0,67,0.00,CLR,SKC,0.00,WeatherDisplay:10.37,2013-01-23 03:03:00,
2013-01-22 21:08:00,15.1,6.1,30.31,SSE,156,0.0,0.0,67,0.00,CLR,SKC,0.00,WeatherDisplay:10.37,2013-01-23 03:08:00,
2013-01-22 21:13:00,14.8,6.1,30.31,SSE,156,1.1,1.1,68,0.00,CLR,SKC,0.00,WeatherDisplay:10.37,2013-01-23 03:13:00,
2013-01-22 21:18:00,14.6,6.3,30.31,SSE,156,0.0,0.0,69,0.00,CLR,SKC,0.00,WeatherDisplay:10.37,2013-01-23 03:18:00,
2013-01-22 21:23:00,14.4,6.1,30.31,SSE,156,0.0,0.0,69,0.00,CLR,SKC,0.00,WeatherDisplay:10.37,2013-01-23 03:23:00,
2013-01-22 21:29:00,14.3,6.3,30.31,SSE,156,0.0,0.0,70,0.00,CLR,SKC,0.00,WeatherDisplay:10.37,2013-01-23 03:29:00,
2013-01-22 21:34:00,14.3,6.6,30.31,SSE,156,1.1,1.1,71,0.00,CLR,SKC,0.00,WeatherDisplay:10.37,2013-01-23 03:34:00,
2013-01-22 21:39:00,14.4,7.0,30.31,SSE,156,1.1,1.1,72,0.00,CLR,SKC,0.00,WeatherDisplay:10.37,2013-01-23 03:39:00,
2013-01-22 21:44:00,14.6,7.2,30.31,SSE,156,0.0,0.0,72,0.00,CLR,SKC,0.00,WeatherDisplay:10.37,2013-01-23 03:44:00,
2013-01-22 21:49:00,14.8,7.4,30.31,SSE,156,0.0,0.0,72,0.00,CLR,SKC,0.00,WeatherDisplay:10.37,2013-01-23 03:49:00,
2013-01-22 21:54:00,14.9,7.5,30.31,SSE,156,0.0,0.0,72,0.00,CLR,SKC,0.00,WeatherDisplay:10.37,2013-01-23 03:54:00,
2013-01-22 21:59:00,15.2,7.8,30.31,SSE,156,0.0,0.0,72,0.00,CLR,SKC,0.00,WeatherDisplay:10.37,2013-01-23 03:59:00,
2013-01-22 22:04:00,15.4,7.7,30.31,SSE,156,1.1,0.0,71,0.00,CLR,SKC,0.00,WeatherDisplay:10.37,2013-01-23 04:04:00,
2013-01-22 22:09:00,15.4,7.7,30.31,SSE,156,0.0,0.0,71,0.00,CLR,SKC,0.00,WeatherDisplay:10.37,2013-01-23 04:09:00,
2013-01-22 22:14:00,15.4,7.7,30.31,SSE,156,2.3,2.3,71,0.00,CLR,SKC,0.00,WeatherDisplay:10.37,2013-01-23 04:14:00,
2013-01-22 22:19:00,15.4,8.0,30.31,SSE,156,2.3,2.3,72,0.00,CLR,SKC,0.00,WeatherDisplay:10.37,2013-01-23 04:19:00,
2013-01-22 22:24:00,15.4,7.7,30.31,SSE,156,2.3,2.3,71,0.00,CLR,SKC,0.00,WeatherDisplay:10.37,2013-01-23 04:24:00,
2013-01-22 22:29:00,15.2,7.8,30.31,SSE,156,2.1,2.1,72,0.00,CLR,SKC,0.00,WeatherDisplay:10.37,2013-01-23 04:29:00,
2013-01-22 22:34:00,15.1,7.7,30.31,SSE,151,2.3,2.3,72,0.00,CLR,SKC,0.00,WeatherDisplay:10.37,2013-01-23 04:34:00,
2013-01-22 22:39:00,15.1,8.0,30.31,SSE,151,1.1,0.0,73,0.00,CLR,SKC,0.00,WeatherDisplay:10.37,2013-01-23 04:39:00,
2013-01-22 22:44:00,14.9,7.8,30.31,SSE,151,0.0,0.0,73,0.00,CLR,SKC,0.00,WeatherDisplay:10.37,2013-01-23 04:44:00,
2013-01-22 22:49:00,14.9,7.8,30.31,SSE,151,1.1,1.1,73,0.00,CLR,SKC,0.00,WeatherDisplay:10.37,2013-01-23 04:49:00,
2013-01-22 22:54:00,14.9,7.8,30.31,SSE,148,3.5,3.5,73,0.00,CLR,SKC,0.00,WeatherDisplay:10.37,2013-01-23 04:54:00,
2013-01-22 22:59:00,15.2,7.8,30.31,SE,142,1.1,1.1,72,0.00,CLR,SKC,0.00,WeatherDisplay:10.37,2013-01-23 04:59:00,
2013-01-22 23:03:00,15.4,8.0,30.31,SE,142,2.3,2.3,72,0.00,CLR,SKC,0.00,WeatherDisplay:10.37,2013-01-23 05:03:00,
2013-01-22 23:04:00,15.4,8.0,30.31,SE,142,2.3,2.3,72,0.00,CLR,SKC,0.00,WeatherDisplay:10.37,2013-01-23 05:04:00,
2013-01-22 23:09:00,15.6,7.9,30.31,ESE,123,3.5,3.5,71,0.00,CLR,SKC,0.00,WeatherDisplay:10.37,2013-01-23 05:09:00,
2013-01-22 23:14:00,15.4,7.7,30.31,ESE,123,3.5,3.5,71,0.00,CLR,SKC,0.00,WeatherDisplay:10.37,2013-01-23 05:14:00,
2013-01-22 23:19:00,15.2,7.8,30.31,ESE,123,3.5,3.5,72,0.00,CLR,SKC,0.00,WeatherDisplay:10.37,2013-01-23 05:19:00,
2013-01-22 23:24:00,15.1,7.7,30.31,ESE,123,2.3,2.3,72,0.00,CLR,SKC,0.00,WeatherDisplay:10.37,2013-01-23 05:24:00,
2013-01-22 23:29:00,14.9,7.5,30.32,ESE,123,2.3,2.3,72,0.00,CLR,SKC,0.00,WeatherDisplay:10.37,2013-01-23 05:29:00,
2013-01-22 23:34:00,14.8,7.7,30.32,ESE,123,2.1,2.1,73,0.00,CLR,SKC,0.00,WeatherDisplay:10.37,2013-01-23 05:34:00,
2013-01-22 23:39:00,14.6,7.5,30.31,ESE,123,2.3,2.3,73,0.00,CLR,SKC,0.00,WeatherDisplay:10.37,2013-01-23 05:39:00,
2013-01-22 23:44:00,14.6,7.5,30.31,ESE,123,2.3,2.3,73,0.00,CLR,SKC,0.00,WeatherDisplay:10.37,2013-01-23 05:44:00,
2013-01-22 23:49:00,14.6,7.5,30.31,ESE,123,3.5,3.5,73,0.00,CLR,SKC,0.00,WeatherDisplay:10.37,2013-01-23 05:49:00,
2013-01-22 23:54:00,14.6,7.5,30.30,ESE,123,1.1,1.1,73,0.00,CLR,SKC,0.00,WeatherDisplay:10.37,2013-01-23 05:54:00,
2013-01-22 23:59:00,14.6,7.5,30.31,ESE,123,1.1,1.1,73,0.00,CLR,SKC,0.00,WeatherDisplay:10.37,2013-01-23 05:59:00,